createdAt,value
2017-09-21T00:00:03.595Z,1015.94
2017-09-21T00:01:03.612Z,1015.96
2017-09-21T00:02:03.635Z,1015.98
2017-09-21T00:04:03.683Z,1016
2017-09-21T00:05:03.702Z,1015.99
2017-09-21T00:06:03.724Z,1015.97
2017-09-21T00:07:03.747Z,1015.97
2017-09-21T00:08:03.768Z,1015.93
2017-09-21T00:09:03.790Z,1015.97
2017-09-21T00:10:03.813Z,1015.98
2017-09-21T00:11:03.835Z,1015.94
2017-09-21T00:12:03.857Z,1015.93
2017-09-21T00:13:03.880Z,1015.95
2017-09-21T00:14:03.903Z,1015.93
2017-09-21T00:15:03.925Z,1015.96
2017-09-21T00:16:03.947Z,1015.91
2017-09-21T00:17:03.969Z,1015.95
2017-09-21T00:18:03.991Z,1015.94
2017-09-21T00:20:04.035Z,1015.97
2017-09-21T00:21:04.060Z,1015.96
2017-09-21T00:22:04.081Z,1015.96
2017-09-21T00:23:04.102Z,1015.93
2017-09-21T00:24:04.124Z,1015.98
2017-09-21T00:25:04.147Z,1016
2017-09-21T00:26:04.169Z,1015.96
2017-09-21T00:27:04.191Z,1016.01
2017-09-21T00:28:04.213Z,1016.02
2017-09-21T00:29:04.237Z,1016.01
2017-09-21T00:30:04.259Z,1016.01
2017-09-21T00:31:04.281Z,1016.03
2017-09-21T00:32:04.302Z,1016.01
2017-09-21T00:33:04.325Z,1016.01
2017-09-21T00:34:04.348Z,1016
2017-09-21T00:36:04.392Z,1016.01
2017-09-21T00:37:04.441Z,1016.07
2017-09-21T00:38:04.436Z,1016.06
2017-09-21T00:39:04.458Z,1016.11
2017-09-21T00:40:04.481Z,1016.13
2017-09-21T00:41:04.502Z,1016.13
2017-09-21T00:42:04.526Z,1016.16
2017-09-21T00:43:04.547Z,1016.15
2017-09-21T00:44:04.571Z,1016.18
2017-09-21T00:45:04.597Z,1016.22
2017-09-21T00:46:04.613Z,1016.19
2017-09-21T00:47:04.636Z,1016.21
2017-09-21T00:48:04.662Z,1016.22
2017-09-21T00:49:04.682Z,1016.23
2017-09-21T00:51:04.727Z,1016.25
2017-09-21T00:52:04.749Z,1016.29
2017-09-21T00:53:04.770Z,1016.3
2017-09-21T00:54:04.794Z,1016.33
2017-09-21T00:55:04.815Z,1016.32
2017-09-21T00:56:04.837Z,1016.3
2017-09-21T00:57:04.859Z,1016.29
2017-09-21T00:58:04.933Z,1016.31
2017-09-21T00:59:04.904Z,1016.3
2017-09-21T01:00:04.925Z,1016.28
2017-09-21T01:01:04.948Z,1016.3
2017-09-21T01:02:04.971Z,1016.29
2017-09-21T01:03:04.993Z,1016.27
2017-09-21T01:04:05.015Z,1016.23
2017-09-21T01:05:05.038Z,1016.22
2017-09-21T01:06:05.060Z,1016.22
2017-09-21T01:07:05.082Z,1016.22
2017-09-21T01:08:05.105Z,1016.23
2017-09-21T01:09:05.126Z,1016.2
2017-09-21T01:10:05.148Z,1016.14
2017-09-21T01:11:05.170Z,1016.18
2017-09-21T01:12:05.193Z,1016.17
2017-09-21T01:13:05.216Z,1016.14
2017-09-21T01:14:05.236Z,1016.17
2017-09-21T01:15:05.259Z,1016.19
2017-09-21T01:16:05.282Z,1016.18
2017-09-21T01:17:05.304Z,1016.21
2017-09-21T01:18:05.327Z,1016.2
2017-09-21T01:19:05.349Z,1016.17
2017-09-21T01:20:05.371Z,1016.16
2017-09-21T01:21:05.392Z,1016.15
2017-09-21T01:23:05.436Z,1016.21
2017-09-21T01:24:05.460Z,1016.19
2017-09-21T01:25:05.482Z,1016.18
2017-09-21T01:26:05.503Z,1016.21
2017-09-21T01:27:05.526Z,1016.18
2017-09-21T01:28:05.549Z,1016.25
2017-09-21T01:29:05.570Z,1016.25
2017-09-21T01:30:05.592Z,1016.26
2017-09-21T01:31:05.615Z,1016.26
2017-09-21T01:32:05.637Z,1016.28
2017-09-21T01:33:05.659Z,1016.26
2017-09-21T01:34:05.681Z,1016.25
2017-09-21T01:35:05.703Z,1016.26
2017-09-21T01:36:05.725Z,1016.28
2017-09-21T01:37:05.747Z,1016.23
2017-09-21T01:39:05.792Z,1016.25
2017-09-21T01:40:05.816Z,1016.25
2017-09-21T01:41:05.835Z,1016.24
2017-09-21T01:42:05.858Z,1016.25
2017-09-21T01:43:05.879Z,1016.27
2017-09-21T01:44:05.902Z,1016.24
2017-09-21T01:45:05.925Z,1016.25
2017-09-21T01:46:05.947Z,1016.27
2017-09-21T01:47:05.967Z,1016.25
2017-09-21T01:48:05.996Z,1016.28
2017-09-21T01:49:06.012Z,1016.29
2017-09-21T01:50:06.035Z,1016.31
2017-09-21T01:51:06.057Z,1016.35
2017-09-21T01:52:06.079Z,1016.35
2017-09-21T01:53:06.100Z,1016.37
2017-09-21T01:55:06.150Z,1016.33
2017-09-21T01:56:06.168Z,1016.33
2017-09-21T01:57:06.189Z,1016.28
2017-09-21T01:58:06.210Z,1016.28
2017-09-21T01:59:06.235Z,1016.26
2017-09-21T02:00:06.256Z,1016.25
2017-09-21T02:01:06.278Z,1016.19
2017-09-21T02:02:06.300Z,1016.16
2017-09-21T02:03:06.321Z,1016.16
2017-09-21T02:04:06.344Z,1016.13
2017-09-21T02:05:06.365Z,1016.13
2017-09-21T02:06:06.389Z,1016.19
2017-09-21T02:07:06.410Z,1016.15
2017-09-21T02:08:06.433Z,1016.14
2017-09-21T02:09:06.454Z,1016.15
2017-09-21T02:11:06.498Z,1016.13
2017-09-21T02:12:06.522Z,1016.12
2017-09-21T02:13:06.543Z,1016.17
2017-09-21T02:14:06.565Z,1016.16
2017-09-21T02:15:06.588Z,1016.16
2017-09-21T02:16:06.609Z,1016.16
2017-09-21T02:17:06.631Z,1016.17
2017-09-21T02:18:06.654Z,1016.14
2017-09-21T02:19:06.676Z,1016.14
2017-09-21T02:20:06.697Z,1016.14
2017-09-21T02:21:06.720Z,1016.11
2017-09-21T02:22:06.741Z,1016.08
2017-09-21T02:23:06.763Z,1016.11
2017-09-21T02:24:06.787Z,1016.09
2017-09-21T02:26:06.831Z,1016.12
2017-09-21T02:27:06.853Z,1016.15
2017-09-21T02:28:06.878Z,1016.07
2017-09-21T02:29:06.897Z,1016.11
2017-09-21T02:30:06.919Z,1016.11
2017-09-21T02:31:06.941Z,1016.06
2017-09-21T02:32:06.963Z,1016.08
2017-09-21T02:33:06.986Z,1016.09
2017-09-21T02:34:07.006Z,1016.08
2017-09-21T02:35:07.029Z,1016.09
2017-09-21T02:36:07.052Z,1016.06
2017-09-21T02:37:07.073Z,1016.08
2017-09-21T02:38:07.142Z,1016.06
2017-09-21T02:39:07.117Z,1016.05
2017-09-21T02:40:07.140Z,1016.02
2017-09-21T02:41:07.161Z,1015.98
2017-09-21T02:42:07.184Z,1016.02
2017-09-21T02:43:07.206Z,1015.96
2017-09-21T02:44:07.227Z,1015.97
2017-09-21T02:45:07.249Z,1015.98
2017-09-21T02:46:07.272Z,1015.97
2017-09-21T02:47:07.293Z,1015.98
2017-09-21T02:48:07.318Z,1015.99
2017-09-21T02:49:07.337Z,1015.99
2017-09-21T02:50:07.359Z,1016.02
2017-09-21T02:51:07.383Z,1015.99
2017-09-21T02:52:07.407Z,1015.99
2017-09-21T02:53:07.425Z,1015.98
2017-09-21T02:54:07.448Z,1015.97
2017-09-21T02:55:07.470Z,1015.9
2017-09-21T02:56:07.493Z,1015.92
2017-09-21T02:58:07.537Z,1015.95
2017-09-21T02:59:07.558Z,1015.93
2017-09-21T03:00:07.580Z,1015.92
2017-09-21T03:01:07.602Z,1015.95
2017-09-21T03:02:07.625Z,1015.94
2017-09-21T03:03:07.647Z,1015.9
2017-09-21T03:04:07.669Z,1015.97
2017-09-21T03:05:07.691Z,1015.95
2017-09-21T03:06:07.713Z,1015.92
2017-09-21T03:07:07.735Z,1015.92
2017-09-21T03:08:07.757Z,1015.93
2017-09-21T03:09:07.779Z,1015.91
2017-09-21T03:10:07.801Z,1015.89
2017-09-21T03:11:07.823Z,1015.89
2017-09-21T03:12:07.844Z,1015.88
2017-09-21T03:14:07.889Z,1015.89
2017-09-21T03:15:07.910Z,1015.89
2017-09-21T03:16:07.934Z,1015.9
2017-09-21T03:17:07.955Z,1015.87
2017-09-21T03:18:07.977Z,1015.9
2017-09-21T03:19:07.999Z,1015.92
2017-09-21T03:20:08.022Z,1015.91
2017-09-21T03:21:08.044Z,1015.95
2017-09-21T03:22:08.064Z,1015.92
2017-09-21T03:23:08.087Z,1015.9
2017-09-21T03:24:08.109Z,1015.9
2017-09-21T03:25:08.132Z,1015.88
2017-09-21T03:26:08.153Z,1015.89
2017-09-21T03:27:08.175Z,1015.9
2017-09-21T03:28:08.198Z,1015.84
2017-09-21T03:30:08.242Z,1015.83
2017-09-21T03:31:08.263Z,1015.84
2017-09-21T03:32:08.287Z,1015.84
2017-09-21T03:33:08.307Z,1015.87
2017-09-21T03:34:08.329Z,1015.81
2017-09-21T03:35:08.350Z,1015.84
2017-09-21T03:36:08.373Z,1015.8
2017-09-21T03:37:08.395Z,1015.79
2017-09-21T03:38:08.418Z,1015.81
2017-09-21T03:39:08.439Z,1015.79
2017-09-21T03:40:08.461Z,1015.76
2017-09-21T03:41:08.483Z,1015.76
2017-09-21T03:42:08.505Z,1015.79
2017-09-21T03:43:08.527Z,1015.77
2017-09-21T03:44:08.552Z,1015.79
2017-09-21T03:46:08.593Z,1015.78
2017-09-21T03:47:08.615Z,1015.79
2017-09-21T03:48:08.636Z,1015.8
2017-09-21T03:49:08.658Z,1015.8
2017-09-21T03:50:08.682Z,1015.82
2017-09-21T03:51:08.702Z,1015.78
2017-09-21T03:52:08.726Z,1015.8
2017-09-21T03:53:08.747Z,1015.81
2017-09-21T03:54:08.771Z,1015.81
2017-09-21T03:55:08.791Z,1015.79
2017-09-21T03:56:08.812Z,1015.78
2017-09-21T03:57:08.834Z,1015.76
2017-09-21T03:58:08.858Z,1015.76
2017-09-21T03:59:08.879Z,1015.76
2017-09-21T04:01:08.925Z,1015.78
2017-09-21T04:02:08.945Z,1015.83
2017-09-21T04:03:08.968Z,1015.82
2017-09-21T04:04:08.990Z,1015.86
2017-09-21T04:05:09.012Z,1015.87
2017-09-21T04:06:09.033Z,1015.9
2017-09-21T04:07:09.055Z,1015.89
2017-09-21T04:08:09.077Z,1015.88
2017-09-21T04:09:09.099Z,1015.91
2017-09-21T04:10:09.122Z,1015.93
2017-09-21T04:11:09.146Z,1015.91
2017-09-21T04:12:09.165Z,1015.87
2017-09-21T04:13:09.188Z,1015.92
2017-09-21T04:14:09.211Z,1015.96
2017-09-21T04:15:09.233Z,1015.98
2017-09-21T04:16:09.254Z,1016.01
2017-09-21T04:17:09.274Z,1015.98
2017-09-21T04:18:09.298Z,1015.99
2017-09-21T04:19:09.320Z,1016
2017-09-21T04:20:09.342Z,1016.01
2017-09-21T04:21:09.364Z,1016.06
2017-09-21T04:22:09.386Z,1016.06
2017-09-21T04:23:09.408Z,1016.06
2017-09-21T04:24:09.429Z,1016.04
2017-09-21T04:25:09.451Z,1016.02
2017-09-21T04:26:09.474Z,1015.99
2017-09-21T04:27:09.495Z,1016.02
2017-09-21T04:28:09.517Z,1016.02
2017-09-21T04:29:09.538Z,1016.01
2017-09-21T04:30:09.561Z,1016.03
2017-09-21T04:31:09.582Z,1015.99
2017-09-21T04:33:09.628Z,1015.93
2017-09-21T04:34:09.648Z,1015.92
2017-09-21T04:35:09.671Z,1015.91
2017-09-21T04:36:09.692Z,1015.88
2017-09-21T04:37:09.714Z,1015.85
2017-09-21T04:38:09.736Z,1015.85
2017-09-21T04:39:09.757Z,1015.84
2017-09-21T04:40:09.780Z,1015.84
2017-09-21T04:41:09.803Z,1015.86
2017-09-21T04:42:09.823Z,1015.81
2017-09-21T04:43:09.849Z,1015.85
2017-09-21T04:44:09.867Z,1015.87
2017-09-21T04:45:09.890Z,1015.82
2017-09-21T04:46:09.916Z,1015.83
2017-09-21T04:47:09.933Z,1015.83
2017-09-21T04:49:09.976Z,1015.92
2017-09-21T04:50:09.997Z,1015.92
2017-09-21T04:51:10.021Z,1015.94
2017-09-21T04:52:10.043Z,1015.95
2017-09-21T04:53:10.066Z,1015.95
2017-09-21T04:54:10.085Z,1015.94
2017-09-21T04:55:10.109Z,1015.98
2017-09-21T04:56:10.130Z,1015.95
2017-09-21T04:57:10.152Z,1015.95
2017-09-21T04:58:10.173Z,1015.98
2017-09-21T04:59:10.197Z,1015.94
2017-09-21T05:00:10.218Z,1015.96
2017-09-21T05:01:10.239Z,1015.92
2017-09-21T05:02:10.260Z,1015.93
2017-09-21T05:03:10.314Z,1015.94
2017-09-21T05:05:10.327Z,1015.92
2017-09-21T05:06:10.348Z,1016
2017-09-21T05:07:10.371Z,1016.01
2017-09-21T05:08:10.391Z,1016.05
2017-09-21T05:09:10.414Z,1016.02
2017-09-21T05:10:10.436Z,1016.05
2017-09-21T05:11:10.464Z,1016.02
2017-09-21T05:12:10.480Z,1016.03
2017-09-21T05:13:10.502Z,1015.99
2017-09-21T05:14:10.524Z,1015.99
2017-09-21T05:15:10.596Z,1015.97
2017-09-21T05:16:10.568Z,1016.03
2017-09-21T05:17:10.588Z,1016.11
2017-09-21T05:18:10.612Z,1016.07
2017-09-21T05:19:10.632Z,1016.1
2017-09-21T05:21:10.676Z,1016.08
2017-09-21T05:22:10.698Z,1016.11
2017-09-21T05:23:10.720Z,1016.17
2017-09-21T05:24:10.742Z,1016.15
2017-09-21T05:25:10.765Z,1016.19
2017-09-21T05:26:10.785Z,1016.16
2017-09-21T05:27:10.809Z,1016.16
2017-09-21T05:28:10.830Z,1016.2
2017-09-21T05:29:10.851Z,1016.15
2017-09-21T05:30:10.872Z,1016.18
2017-09-21T05:31:10.895Z,1016.17
2017-09-21T05:32:10.917Z,1016.13
2017-09-21T05:33:10.939Z,1016.14
2017-09-21T05:34:10.963Z,1016.07
2017-09-21T05:36:11.007Z,1016.14
2017-09-21T05:37:11.027Z,1016.11
2017-09-21T05:38:11.049Z,1016.11
2017-09-21T05:39:11.072Z,1016.13
2017-09-21T05:40:11.093Z,1016.12
2017-09-21T05:41:11.116Z,1016.15
2017-09-21T05:42:11.137Z,1016.18
2017-09-21T05:43:11.159Z,1016.14
2017-09-21T05:44:11.181Z,1016.12
2017-09-21T05:45:11.203Z,1016.13
2017-09-21T05:46:11.228Z,1016.11
2017-09-21T05:47:11.248Z,1016.1
2017-09-21T05:48:11.267Z,1016.15
2017-09-21T05:49:11.290Z,1016.11
2017-09-21T05:50:11.312Z,1016.13
2017-09-21T05:51:11.335Z,1016.08
2017-09-21T05:52:11.356Z,1016.13
2017-09-21T05:53:11.379Z,1016.14
2017-09-21T05:54:11.408Z,1016.13
2017-09-21T05:55:11.422Z,1016.13
2017-09-21T05:56:11.446Z,1016.21
2017-09-21T05:57:11.467Z,1016.17
2017-09-21T05:58:11.490Z,1016.16
2017-09-21T05:59:11.513Z,1016.08
2017-09-21T06:00:11.535Z,1016.12
2017-09-21T06:01:11.557Z,1016.13
2017-09-21T06:02:11.579Z,1016.08
2017-09-21T06:03:11.602Z,1016.09
2017-09-21T06:04:11.624Z,1016.09
2017-09-21T06:05:11.645Z,1016.08
2017-09-21T06:06:11.668Z,1016.09
2017-09-21T06:08:11.712Z,1016.13
2017-09-21T06:09:11.735Z,1016.17
2017-09-21T06:10:11.757Z,1016.2
2017-09-21T06:11:11.783Z,1016.21
2017-09-21T06:12:11.803Z,1016.19
2017-09-21T06:13:11.825Z,1016.21
2017-09-21T06:14:11.850Z,1016.2
2017-09-21T06:15:11.869Z,1016.29
2017-09-21T06:16:11.893Z,1016.28
2017-09-21T06:17:11.915Z,1016.31
2017-09-21T06:18:11.939Z,1016.32
2017-09-21T06:19:11.962Z,1016.34
2017-09-21T06:20:11.985Z,1016.33
2017-09-21T06:21:12.008Z,1016.45
2017-09-21T06:22:12.031Z,1016.42
2017-09-21T06:24:12.079Z,1016.36
2017-09-21T06:25:12.100Z,1016.39
2017-09-21T06:26:12.124Z,1016.42
2017-09-21T06:27:12.149Z,1016.43
2017-09-21T06:28:12.172Z,1016.44
2017-09-21T06:29:12.195Z,1016.5
2017-09-21T06:30:12.220Z,1016.4
2017-09-21T06:31:12.244Z,1016.43
2017-09-21T06:32:12.267Z,1016.4
2017-09-21T06:33:12.290Z,1016.37
2017-09-21T06:34:12.314Z,1016.39
2017-09-21T06:35:12.338Z,1016.39
2017-09-21T06:36:12.376Z,1016.38
2017-09-21T06:37:12.386Z,1016.44
2017-09-21T06:38:12.409Z,1016.39
2017-09-21T06:40:12.456Z,1016.76
2017-09-21T06:41:12.479Z,1016.94
2017-09-21T06:42:12.505Z,1016.97
2017-09-21T06:43:12.527Z,1017.06
2017-09-21T06:44:12.552Z,1017.07
2017-09-21T06:45:12.576Z,1017.09
2017-09-21T06:46:12.601Z,1017.09
2017-09-21T06:47:12.627Z,1016.87
2017-09-21T06:48:12.651Z,1016.61
2017-09-21T06:49:12.678Z,1016.74
2017-09-21T06:50:12.702Z,1017.23
2017-09-21T06:51:12.728Z,1017.21
2017-09-21T06:52:12.754Z,1017.22
2017-09-21T06:53:12.779Z,1017.2
2017-09-21T06:54:12.805Z,1017.24
2017-09-21T06:56:12.861Z,1017.25
2017-09-21T06:57:12.886Z,1017.26
2017-09-21T06:58:12.912Z,1017.26
2017-09-21T06:59:12.941Z,1017.24
2017-09-21T07:00:12.968Z,1017.22
2017-09-21T07:01:12.994Z,1017.26
2017-09-21T07:02:13.022Z,1017.31
2017-09-21T07:03:13.051Z,1017.04
2017-09-21T07:04:13.080Z,1017.18
2017-09-21T07:05:13.107Z,1017.29
2017-09-21T07:06:13.137Z,1017.28
2017-09-21T07:07:13.166Z,1017.05
2017-09-21T07:08:13.196Z,1016.95
2017-09-21T07:09:13.223Z,1016.94
2017-09-21T07:11:13.285Z,1017.22
2017-09-21T07:12:13.310Z,1017.17
2017-09-21T07:13:13.338Z,1017.17
2017-09-21T07:14:13.370Z,1017.18
2017-09-21T07:15:13.397Z,1017.14
2017-09-21T07:16:13.426Z,1017.15
2017-09-21T07:17:13.454Z,1017.11
2017-09-21T07:18:13.485Z,1017.12
2017-09-21T07:19:13.512Z,1017.15
2017-09-21T07:20:13.543Z,1017.16
2017-09-21T07:21:13.573Z,1017.14
2017-09-21T07:22:13.603Z,1017.19
2017-09-21T07:23:13.632Z,1017.18
2017-09-21T07:24:13.663Z,1017.18
2017-09-21T07:25:13.690Z,1017.13
2017-09-21T07:26:13.721Z,1017.14
2017-09-21T07:27:13.751Z,1017.17
2017-09-21T07:28:13.780Z,1017.25
2017-09-21T07:29:13.812Z,1017.14
2017-09-21T07:30:13.841Z,1016.94
2017-09-21T07:31:13.871Z,1016.88
2017-09-21T07:32:13.901Z,1016.9
2017-09-21T07:33:13.933Z,1016.92
2017-09-21T07:34:13.962Z,1016.84
2017-09-21T07:35:13.991Z,1016.92
2017-09-21T07:36:14.021Z,1016.89
2017-09-21T07:37:14.052Z,1016.91
2017-09-21T07:38:14.080Z,1016.86
2017-09-21T07:39:14.110Z,1016.89
2017-09-21T07:40:14.139Z,1016.83
2017-09-21T07:41:14.169Z,1016.81
2017-09-21T07:43:14.227Z,1016.74
2017-09-21T07:44:14.256Z,1016.76
2017-09-21T07:45:14.283Z,1016.72
2017-09-21T07:46:14.313Z,1016.73
2017-09-21T07:47:14.340Z,1016.77
2017-09-21T07:48:14.368Z,1016.71
2017-09-21T07:49:14.396Z,1016.77
2017-09-21T07:50:14.424Z,1016.77
2017-09-21T07:51:14.453Z,1016.76
2017-09-21T07:52:14.480Z,1016.75
2017-09-21T07:53:14.506Z,1016.68
2017-09-21T07:54:14.540Z,1016.74
2017-09-21T07:55:14.563Z,1016.7
2017-09-21T07:56:14.588Z,1016.73
2017-09-21T07:57:14.617Z,1016.76
2017-09-21T07:59:14.671Z,1016.8
2017-09-21T08:00:14.697Z,1016.82
2017-09-21T08:01:14.725Z,1016.82
2017-09-21T08:02:14.753Z,1016.82
2017-09-21T08:03:14.778Z,1016.81
2017-09-21T08:04:14.806Z,1016.78
2017-09-21T08:05:14.834Z,1016.86
2017-09-21T08:06:14.863Z,1016.8
2017-09-21T08:07:14.888Z,1016.79
2017-09-21T08:08:14.916Z,1016.78
2017-09-21T08:09:14.945Z,1016.73
2017-09-21T08:10:14.974Z,1016.81
2017-09-21T08:11:15.001Z,1016.81
2017-09-21T08:12:15.027Z,1016.85
2017-09-21T08:13:15.058Z,1016.77
2017-09-21T08:15:15.111Z,1016.81
2017-09-21T08:16:15.139Z,1016.81
2017-09-21T08:17:15.166Z,1016.83
2017-09-21T08:18:15.193Z,1016.81
2017-09-21T08:19:15.222Z,1016.81
2017-09-21T08:20:15.249Z,1016.79
2017-09-21T08:21:15.277Z,1016.77
2017-09-21T08:22:15.304Z,1016.8
2017-09-21T08:23:15.331Z,1016.79
2017-09-21T08:24:15.358Z,1016.82
2017-09-21T08:25:15.385Z,1016.75
2017-09-21T08:26:15.411Z,1016.76
2017-09-21T08:27:15.439Z,1016.82
2017-09-21T08:28:15.465Z,1016.75
2017-09-21T08:29:15.491Z,1016.75
2017-09-21T08:31:15.545Z,1016.78
2017-09-21T08:32:15.574Z,1016.79
2017-09-21T08:33:15.601Z,1016.75
2017-09-21T08:34:15.625Z,1016.8
2017-09-21T08:35:15.651Z,1016.76
2017-09-21T08:36:15.675Z,1016.81
2017-09-21T08:37:15.703Z,1016.74
2017-09-21T08:38:15.733Z,1016.76
2017-09-21T08:39:15.755Z,1016.73
2017-09-21T08:40:15.779Z,1016.71
2017-09-21T08:41:15.807Z,1016.69
2017-09-21T08:42:15.832Z,1016.7
2017-09-21T08:43:15.858Z,1016.74
2017-09-21T08:44:15.884Z,1016.72
2017-09-21T08:46:15.937Z,1016.66
2017-09-21T08:47:15.962Z,1016.68
2017-09-21T08:48:15.988Z,1016.66
2017-09-21T08:49:16.014Z,1016.7
2017-09-21T08:50:16.040Z,1016.67
2017-09-21T08:51:16.065Z,1016.64
2017-09-21T08:52:16.091Z,1016.64
2017-09-21T08:53:16.117Z,1016.65
2017-09-21T08:54:16.142Z,1016.65
2017-09-21T08:55:16.171Z,1016.65
2017-09-21T08:56:16.195Z,1016.68
2017-09-21T08:57:16.220Z,1016.72
2017-09-21T08:58:16.246Z,1016.69
2017-09-21T08:59:16.272Z,1016.69
2017-09-21T09:00:16.298Z,1016.69
2017-09-21T09:01:16.323Z,1016.65
2017-09-21T09:02:16.349Z,1016.64
2017-09-21T09:03:16.374Z,1016.64
2017-09-21T09:04:16.402Z,1016.67
2017-09-21T09:05:16.425Z,1016.62
2017-09-21T09:06:16.451Z,1016.64
2017-09-21T09:07:16.477Z,1016.66
2017-09-21T09:08:16.503Z,1016.64
2017-09-21T09:09:16.529Z,1016.64
2017-09-21T09:10:16.556Z,1016.65
2017-09-21T09:11:16.581Z,1016.69
2017-09-21T09:12:16.608Z,1016.68
2017-09-21T09:13:16.634Z,1016.67
2017-09-21T09:14:16.659Z,1016.67
2017-09-21T09:15:16.685Z,1016.61
2017-09-21T09:16:16.713Z,1016.72
2017-09-21T09:18:16.763Z,1016.65
2017-09-21T09:19:16.790Z,1016.65
2017-09-21T09:20:16.815Z,1016.66
2017-09-21T09:21:16.843Z,1016.64
2017-09-21T09:22:16.869Z,1016.63
2017-09-21T09:23:16.896Z,1016.61
2017-09-21T09:24:16.920Z,1016.62
2017-09-21T09:25:16.948Z,1016.65
2017-09-21T09:26:16.974Z,1016.65
2017-09-21T09:27:17.001Z,1016.67
2017-09-21T09:28:17.025Z,1016.61
2017-09-21T09:29:17.051Z,1016.6
2017-09-21T09:30:17.079Z,1016.65
2017-09-21T09:31:17.103Z,1016.67
2017-09-21T09:32:17.130Z,1016.63
2017-09-21T09:34:17.188Z,1016.61
2017-09-21T09:35:17.207Z,1016.62
2017-09-21T09:36:17.232Z,1016.64
2017-09-21T09:37:17.259Z,1016.6
2017-09-21T09:38:17.284Z,1016.6
2017-09-21T09:39:17.309Z,1016.6
2017-09-21T09:40:17.336Z,1016.55
2017-09-21T09:41:17.361Z,1016.55
2017-09-21T09:42:17.386Z,1016.55
2017-09-21T09:43:17.413Z,1016.55
2017-09-21T09:44:17.437Z,1016.51
2017-09-21T09:45:17.463Z,1016.52
2017-09-21T09:46:17.488Z,1016.52
2017-09-21T09:47:17.516Z,1016.48
2017-09-21T09:48:17.541Z,1016.49
2017-09-21T09:50:17.592Z,1016.45
2017-09-21T09:51:17.618Z,1016.5
2017-09-21T09:52:17.643Z,1016.48
2017-09-21T09:53:17.669Z,1016.47
2017-09-21T09:54:17.695Z,1016.47
2017-09-21T09:55:17.720Z,1016.46
2017-09-21T09:56:17.746Z,1016.48
2017-09-21T09:57:17.772Z,1016.47
2017-09-21T09:58:17.798Z,1016.48
2017-09-21T09:59:17.825Z,1016.5
2017-09-21T10:00:17.849Z,1016.53
2017-09-21T10:01:17.873Z,1016.54
2017-09-21T10:02:17.900Z,1016.54
2017-09-21T10:03:17.926Z,1016.49
2017-09-21T10:04:17.949Z,1016.47
2017-09-21T10:06:18.002Z,1016.49
2017-09-21T10:07:18.028Z,1016.53
2017-09-21T10:08:18.052Z,1016.51
2017-09-21T10:09:18.079Z,1016.46
2017-09-21T10:10:18.103Z,1016.46
2017-09-21T10:11:18.129Z,1016.43
2017-09-21T10:12:18.155Z,1016.37
2017-09-21T10:13:18.180Z,1016.38
2017-09-21T10:14:18.206Z,1016.42
2017-09-21T10:15:18.232Z,1016.36
2017-09-21T10:16:18.258Z,1016.42
2017-09-21T10:17:18.284Z,1016.37
2017-09-21T10:18:18.309Z,1016.36
2017-09-21T10:19:18.334Z,1016.42
2017-09-21T10:21:18.386Z,1016.37
2017-09-21T10:22:18.411Z,1016.34
2017-09-21T10:23:18.461Z,1016.38
2017-09-21T10:24:18.465Z,1016.39
2017-09-21T10:25:18.491Z,1016.41
2017-09-21T10:26:18.515Z,1016.38
2017-09-21T10:27:18.542Z,1016.4
2017-09-21T10:28:18.568Z,1016.4
2017-09-21T10:29:18.592Z,1016.43
2017-09-21T10:30:18.619Z,1016.44
2017-09-21T10:31:18.645Z,1016.44
2017-09-21T10:32:18.670Z,1016.44
2017-09-21T10:33:18.696Z,1016.45
2017-09-21T10:34:18.722Z,1016.41
2017-09-21T10:35:18.797Z,1016.34
2017-09-21T10:36:18.773Z,1016.36
2017-09-21T10:37:18.799Z,1016.38
2017-09-21T10:38:18.825Z,1016.37
2017-09-21T10:39:18.850Z,1016.38
2017-09-21T10:40:18.876Z,1016.35
2017-09-21T10:41:18.902Z,1016.33
2017-09-21T10:42:18.929Z,1016.31
2017-09-21T10:43:18.953Z,1016.3
2017-09-21T10:44:18.980Z,1016.25
2017-09-21T10:45:19.005Z,1016.24
2017-09-21T10:46:19.031Z,1016.26
2017-09-21T10:47:19.058Z,1016.25
2017-09-21T10:48:19.083Z,1016.24
2017-09-21T10:49:19.108Z,1016.2
2017-09-21T10:50:19.135Z,1016.22
2017-09-21T10:51:19.160Z,1016.27
2017-09-21T10:53:19.213Z,1016.28
2017-09-21T10:54:19.239Z,1016.27
2017-09-21T10:55:19.264Z,1016.27
2017-09-21T10:56:19.289Z,1016.26
2017-09-21T10:57:19.315Z,1016.23
2017-09-21T10:58:19.341Z,1016.27
2017-09-21T10:59:19.366Z,1016.29
2017-09-21T11:00:19.393Z,1016.31
2017-09-21T11:01:19.418Z,1016.27
2017-09-21T11:02:19.442Z,1016.25
2017-09-21T11:03:19.469Z,1016.28
2017-09-21T11:04:19.494Z,1016.27
2017-09-21T11:05:19.519Z,1016.26
2017-09-21T11:06:19.544Z,1016.24
2017-09-21T11:07:19.569Z,1016.26
2017-09-21T11:09:19.621Z,1016.31
2017-09-21T11:10:19.645Z,1016.29
2017-09-21T11:11:19.671Z,1016.27
2017-09-21T11:12:19.697Z,1016.26
2017-09-21T11:13:19.722Z,1016.25
2017-09-21T11:14:19.748Z,1016.22
2017-09-21T11:15:19.772Z,1016.24
2017-09-21T11:16:19.798Z,1016.21
2017-09-21T11:17:19.822Z,1016.23
2017-09-21T11:18:19.849Z,1016.26
2017-09-21T11:19:19.878Z,1016.21
2017-09-21T11:20:19.899Z,1016.17
2017-09-21T11:21:19.925Z,1016.21
2017-09-21T11:22:19.957Z,1016.24
2017-09-21T11:23:19.976Z,1016.18
2017-09-21T11:25:20.025Z,1016.16
2017-09-21T11:26:20.051Z,1016.19
2017-09-21T11:27:20.076Z,1016.18
2017-09-21T11:28:20.102Z,1016.16
2017-09-21T11:29:20.127Z,1016.22
2017-09-21T11:30:20.153Z,1016.14
2017-09-21T11:31:20.180Z,1016.17
2017-09-21T11:32:20.204Z,1016.18
2017-09-21T11:33:20.230Z,1016.18
2017-09-21T11:34:20.256Z,1016.14
2017-09-21T11:35:20.279Z,1016.16
2017-09-21T11:36:20.305Z,1016.11
2017-09-21T11:37:20.332Z,1016.14
2017-09-21T11:38:20.358Z,1016.15
2017-09-21T11:39:20.385Z,1016.15
2017-09-21T11:41:20.434Z,1016.21
2017-09-21T11:42:20.460Z,1016.15
2017-09-21T11:43:20.485Z,1016.19
2017-09-21T11:44:20.510Z,1016.21
2017-09-21T11:45:20.538Z,1016.2
2017-09-21T11:46:20.561Z,1016.23
2017-09-21T11:47:20.587Z,1016.23
2017-09-21T11:48:20.613Z,1016.21
2017-09-21T11:49:20.640Z,1016.18
2017-09-21T11:50:20.664Z,1016.17
2017-09-21T11:51:20.688Z,1016.17
2017-09-21T11:52:20.715Z,1016.16
2017-09-21T11:53:20.741Z,1016.16
2017-09-21T11:54:20.767Z,1016.17
2017-09-21T11:56:20.819Z,1016.18
2017-09-21T11:57:20.843Z,1016.16
2017-09-21T11:58:20.868Z,1016.18
2017-09-21T11:59:20.895Z,1016.13
2017-09-21T12:00:20.921Z,1016.17
2017-09-21T12:01:20.994Z,1016.17
2017-09-21T12:02:20.970Z,1016.2
2017-09-21T12:03:21.000Z,1016.15
2017-09-21T12:04:21.021Z,1016.15
2017-09-21T12:05:21.046Z,1016.16
2017-09-21T12:06:21.073Z,1016.14
2017-09-21T12:07:21.099Z,1016.14
2017-09-21T12:08:21.122Z,1016.15
2017-09-21T12:09:21.149Z,1016.13
2017-09-21T12:10:21.175Z,1016.11
2017-09-21T12:11:21.200Z,1016.09
2017-09-21T12:12:21.226Z,1016.07
2017-09-21T12:13:21.251Z,1016.12
2017-09-21T12:14:21.277Z,1016.07
2017-09-21T12:15:21.301Z,1016.08
2017-09-21T12:16:21.328Z,1016.09
2017-09-21T12:17:21.353Z,1016.06
2017-09-21T12:18:21.378Z,1016.09
2017-09-21T12:19:21.404Z,1016.04
2017-09-21T12:20:21.429Z,1016.08
2017-09-21T12:21:21.454Z,1016.04
2017-09-21T12:22:21.480Z,1016.02
2017-09-21T12:23:21.504Z,1016.01
2017-09-21T12:24:21.531Z,1016.04
2017-09-21T12:25:21.556Z,1016.07
2017-09-21T12:26:21.581Z,1016.06
2017-09-21T12:28:21.632Z,1016.14
2017-09-21T12:29:21.658Z,1016.1
2017-09-21T12:30:21.683Z,1016.14
2017-09-21T12:31:21.707Z,1016.17
2017-09-21T12:32:21.732Z,1016.17
2017-09-21T12:33:21.761Z,1016.14
2017-09-21T12:34:21.782Z,1016.16
2017-09-21T12:35:21.807Z,1016.16
2017-09-21T12:36:21.833Z,1016.13
2017-09-21T12:37:21.857Z,1016.17
2017-09-21T12:38:21.882Z,1016.16
2017-09-21T12:39:21.908Z,1016.18
2017-09-21T12:40:21.933Z,1016.21
2017-09-21T12:41:21.958Z,1016.17
2017-09-21T12:42:21.981Z,1016.17
2017-09-21T12:44:22.032Z,1016.19
2017-09-21T12:45:22.055Z,1016.19
2017-09-21T12:46:22.080Z,1016.18
2017-09-21T12:47:22.106Z,1016.16
2017-09-21T12:48:22.128Z,1016.12